📊 Raw Sensor Data

Showing records 38251 to 38275 of 84,926 total

ID Distance (ft) Battery V Battery A Int Temp (°F) Int Humid (%) Ext Temp (°F) Solar V RSSI SNR Time Stamp
46688 15.0 3.93 -5 63 50 63 0.00 -68 7 07/18/2025 09:45 PM
46687 15.0 3.93 -5 64 51 64 0.00 -70 9 07/18/2025 09:30 PM
46686 15.0 3.81 -5 65 52 65 0.00 -69 8 07/18/2025 09:15 PM
46685 15.0 3.81 -5 67 54 66 0.00 -70 8 07/18/2025 09:00 PM
46684 15.0 3.81 -5 69 55 67 0.50 -69 8 07/18/2025 08:45 PM
46683 15.1 3.92 -10 72 56 69 3.40 -70 8 07/18/2025 08:30 PM
46682 15.1 3.83 0 78 55 73 4.50 -70 7 07/18/2025 08:15 PM
46681 15.2 3.97 0 81 54 75 4.50 -70 8 07/18/2025 08:00 PM
46680 15.2 3.98 5 85 54 78 4.60 -72 8 07/18/2025 07:45 PM
46679 15.2 4.00 8 89 52 81 4.50 -70 8 07/18/2025 07:30 PM
46678 15.3 4.03 9 91 52 85 4.50 -69 8 07/18/2025 07:15 PM
46677 15.3 3.95 0 92 51 83 4.50 -70 8 07/18/2025 07:00 PM
46676 15.2 3.98 0 94 51 85 5.10 -70 7 07/18/2025 06:45 PM
46675 15.3 3.93 0 96 50 88 5.10 -70 8 07/18/2025 06:15 PM
46674 15.3 3.93 0 97 49 87 5.10 -71 7 07/18/2025 06:00 PM
46673 15.3 3.93 0 98 49 87 5.10 -69 8 07/18/2025 05:45 PM
46672 15.2 4.11 0 99 48 90 5.10 -70 8 07/18/2025 05:30 PM
46671 15.2 3.93 0 100 47 90 5.10 -69 8 07/18/2025 05:00 PM
46670 15.3 3.93 0 101 46 91 5.10 -71 8 07/18/2025 04:45 PM
46669 15.3 3.94 0 100 46 93 5.10 -70 8 07/18/2025 04:30 PM
46668 15.2 4.11 0 100 45 92 5.10 -70 8 07/18/2025 04:15 PM
46667 15.2 3.97 0 99 44 92 5.10 -69 7 07/18/2025 04:00 PM
46666 15.3 3.93 0 99 44 91 5.10 -71 8 07/18/2025 03:45 PM
46665 15.3 4.12 0 99 43 91 5.10 -70 8 07/18/2025 03:30 PM
46664 15.2 4.12 0 97 42 91 5.10 -71 8 07/18/2025 03:15 PM